PABI/DJN METAR and TAF weather

Enter ICAO airport designator
Station Type Date Time Source
PABI METAR 2019/09/21 21:21 UTC NOAA

PABI 212121Z 31008KT 7SM -RA BKN015 OVC021 04/02 A2947 RMK AO2 PCPN VRY LGT OCNL WATERFOWL VC P0000 T00390022


Station Type Date Time Source
PABI Decoded METAR 2019/09/21 21:21 UTC NOAA

ALLEN ARMY AIRFIELD, AK, United States (PABI) 64-00N 145-43W 391M
Sep 21, 2019 - 05:21 PM EDT / 2019.09.21 2121 UTC
Wind: from the NW (310 degrees) at 9 MPH (8 KT):0
Visibility: 7 mile(s):0
Sky conditions: overcast
Weather: light rain
Precipitation last hour: A trace
Temperature: 39.0 F (3.9 C)
Dew Point: 36.0 F (2.2 C)
Relative Humidity: 88%
Pressure (altimeter): 29.47 in. Hg (997 hPa)
ob: PABI 212121Z 31008KT 7SM -RA BKN015 OVC021 04/02 A2947 RMK AO2 PCPN VRY LGT OCNL WATERFOWL VC P0000 T00390022
cycle: 21

Station Type Date Time Source
PABI TAF 2019/09/21 06:57 UTC NOAA

TAF PABI 210600Z 2106/2212 VRB06KT 8000 -RA SCT024 OVC034 600506 621107 QNH2906INS
TEMPO 2106/2112 6000 BR
BECMG 2119/2120 30012KT 9000 -RA OVC006 600503 620809 QNH2934INS
BECMG 2208/2209 VRB06KT 9999 NSW SCT008 QNH2956INS TX08/2106Z TN01/2112Z LAST NO
AMDS AFT 2106 NEXT 2314

Example: see airport list